Time;durP1;ratioP1;P1;durP2;ratioP2;P2;SDS_P1;SDS_P2;PMS_P1;PMS_P2;Temp;Humidity;BMP_temperature;BMP_pressure;BME280_temperature;BME280_humidity;BME280_pressure;Samples;Min_cycle;Max_cycle;Signal;HPM_P1;HPM_P2
2021/04/18 00:00:10;;;;;;;47.03;22.20;;;;;;;5.85;89.05;99183.58;2218370;80;22011;-72
2021/04/18 00:03:14;;;;;;;43.38;19.67;;;;;;;5.89;89.40;99188.23;2218538;80;21106;-72
2021/04/18 00:06:17;;;;;;;41.95;20.97;;;;;;;5.96;89.34;99184.50;2218431;80;21139;-72
2021/04/18 00:09:19;;;;;;;46.13;21.25;;;;;;;6.02;89.14;99186.04;2218346;80;21111;-72
2021/04/18 00:12:22;;;;;;;48.60;22.17;;;;;;;6.04;89.04;99189.45;2218312;80;21173;-72
2021/04/18 00:15:24;;;;;;;49.25;23.00;;;;;;;6.00;88.94;99184.80;2218556;80;21554;-72
2021/04/18 00:18:26;;;;;;;44.63;21.35;;;;;;;5.94;88.82;99188.91;2218530;80;21601;-72
2021/04/18 00:21:28;;;;;;;49.38;22.20;;;;;;;5.89;89.17;99185.17;2218418;80;21110;-73
2021/04/18 00:24:30;;;;;;;50.23;22.22;;;;;;;5.93;89.20;99185.05;2218913;80;21273;-72
2021/04/18 00:27:32;;;;;;;49.83;22.32;;;;;;;5.96;88.99;99183.63;2218770;80;21304;-72
2021/04/18 00:30:34;;;;;;;50.15;23.00;;;;;;;5.88;88.89;99189.12;2218514;80;21158;-72
2021/04/18 00:33:36;;;;;;;52.33;24.07;;;;;;;5.80;88.95;99189.84;2218527;80;21554;-73
2021/04/18 00:36:38;;;;;;;52.30;23.80;;;;;;;5.83;89.29;99181.49;2218434;80;21142;-72
2021/04/18 00:39:40;;;;;;;56.80;24.23;;;;;;;5.87;89.22;99175.24;2218442;80;21268;-72
2021/04/18 00:42:42;;;;;;;52.30;23.57;;;;;;;5.94;89.17;99169.84;2218456;80;21588;-72
2021/04/18 00:45:44;;;;;;;52.08;24.75;;;;;;;6.01;89.14;99170.04;2218613;80;21152;-72
2021/04/18 00:48:46;;;;;;;49.33;22.67;;;;;;;6.10;89.10;99172.75;2189955;80;21245;-72
2021/04/18 00:51:48;;;;;;;50.35;22.90;;;;;;;6.12;88.86;99167.02;2218475;80;21193;-72
2021/04/18 00:54:50;;;;;;;;;;;;;;;6.10;88.83;99168.38;2221223;80;21281;-72
2021/04/18 00:57:52;;;;;;;50.17;22.35;;;;;;;6.22;88.65;99169.67;2218372;80;20423;-72
2021/04/18 01:00:54;;;;;;;46.10;21.60;;;;;;;6.04;88.08;99166.02;2218510;80;21118;-72
2021/04/18 01:03:56;;;;;;;50.15;23.73;;;;;;;6.00;88.60;99165.73;2218733;80;21158;-72
2021/04/18 01:06:58;;;;;;;57.03;25.15;;;;;;;6.03;88.63;99170.82;2218373;80;21308;-72
2021/04/18 01:10:00;;;;;;;65.10;29.80;;;;;;;6.04;88.56;99168.62;2218344;80;21206;-72
2021/04/18 01:13:02;;;;;;;50.55;24.40;;;;;;;6.02;88.41;99163.91;2218347;80;21329;-71
2021/04/18 01:16:04;;;;;;;54.42;26.62;;;;;;;5.92;88.29;99169.02;2218382;80;21297;-71
2021/04/18 01:19:06;;;;;;;52.35;24.20;;;;;;;5.89;88.72;99166.94;2218401;80;21272;-72
2021/04/18 01:22:08;;;;;;;54.93;25.72;;;;;;;5.85;88.55;99161.91;2218455;80;21583;-71
2021/04/18 01:25:11;;;;;;;50.55;23.25;;;;;;;5.80;88.71;99161.21;2218387;80;21296;-72
2021/04/18 01:28:13;;;;;;;51.15;24.47;;;;;;;5.72;88.66;99167.55;2189893;80;21740;-71
2021/04/18 01:31:15;;;;;;;50.90;23.75;;;;;;;5.70;88.84;99164.59;2218361;80;21717;-72
2021/04/18 01:34:17;;;;;;;50.95;23.60;;;;;;;5.70;89.13;99168.06;2218609;80;21142;-72
2021/04/18 01:37:20;;;;;;;51.42;23.47;;;;;;;5.77;89.37;99166.07;2218362;80;21721;-71
2021/04/18 01:40:22;;;;;;;;;;;;;;;5.93;89.40;99168.97;2221148;80;21296;-71
2021/04/18 01:43:24;;;;;;;51.70;23.80;;;;;;;6.03;89.00;99161.70;2189905;80;20139;-71
2021/04/18 01:46:27;;;;;;;53.23;24.40;;;;;;;6.12;88.99;99170.92;2218567;80;21297;-71
2021/04/18 01:49:29;;;;;;;52.93;24.32;;;;;;;6.17;88.81;99165.95;2218337;80;21285;-72
2021/04/18 01:52:31;;;;;;;53.05;23.42;;;;;;;6.23;88.57;99167.47;2218323;80;21336;-72
2021/04/18 01:55:33;;;;;;;53.28;24.15;;;;;;;6.26;88.46;99166.52;2218351;80;21281;-71
2021/04/18 01:58:35;;;;;;;51.00;24.25;;;;;;;6.24;88.04;99167.88;2218335;80;21316;-71
2021/04/18 02:01:39;;;;;;;54.63;24.63;;;;;;;6.17;87.96;99165.11;2222438;79;21268;-72
2021/04/18 02:04:41;;;;;;;54.85;26.10;;;;;;;6.14;88.06;99159.55;2222343;80;21309;-71
2021/04/18 02:07:43;;;;;;;52.55;24.32;;;;;;;6.13;88.04;99159.61;2195803;80;21304;-72
2021/04/18 02:10:45;;;;;;;54.88;23.80;;;;;;;6.13;88.03;99157.84;2196252;80;21280;-72
2021/04/18 02:13:47;;;;;;;52.20;24.25;;;;;;;6.11;88.05;99154.46;2222461;80;21295;-72
2021/04/18 02:16:49;;;;;;;52.33;24.30;;;;;;;6.12;88.12;99151.39;2222691;79;21704;-72
2021/04/18 02:19:51;;;;;;;56.10;24.85;;;;;;;6.13;88.01;99152.64;2222516;79;21292;-72
2021/04/18 02:22:53;;;;;;;51.75;23.45;;;;;;;6.13;87.95;99146.59;2222662;79;21280;-72
2021/04/18 02:25:55;;;;;;;55.28;25.17;;;;;;;6.14;88.04;99144.39;2222738;80;21118;-71
2021/04/18 02:28:57;;;;;;;53.05;25.00;;;;;;;6.16;87.98;99143.86;2222410;79;21304;-71
2021/04/18 02:31:59;;;;;;;57.58;26.15;;;;;;;6.17;88.03;99140.36;2222623;79;21280;-72
2021/04/18 02:35:01;;;;;;;54.70;25.20;;;;;;;6.18;87.84;99139.00;2222386;79;21292;-72
2021/04/18 02:38:04;;;;;;;54.23;24.75;;;;;;;6.20;87.71;99146.75;2222490;79;21705;-72
2021/04/18 02:41:06;;;;;;;62.20;28.15;;;;;;;6.19;87.65;99145.91;2222404;79;21308;-72
2021/04/18 02:44:08;;;;;;;56.60;26.93;;;;;;;6.18;87.71;99142.91;2222419;79;21264;-71
2021/04/18 02:47:10;;;;;;;62.45;29.25;;;;;;;6.24;87.75;99139.22;2222398;79;21776;-72
2021/04/18 02:50:12;;;;;;;60.30;28.60;;;;;;;6.23;87.62;99133.61;2222400;79;21280;-72
2021/04/18 02:53:14;;;;;;;56.13;25.80;;;;;;;6.21;87.60;99132.37;2222763;79;21173;-71
2021/04/18 02:56:16;;;;;;;58.33;27.50;;;;;;;6.15;87.45;99128.70;2222428;79;21257;-72
2021/04/18 02:59:18;;;;;;;54.88;26.68;;;;;;;6.06;87.66;99119.92;2221729;79;21285;-72
2021/04/18 03:02:20;;;;;;;57.05;25.95;;;;;;;6.08;87.75;99124.63;2218428;80;21760;-72
2021/04/18 03:05:22;;;;;;;59.88;27.67;;;;;;;6.11;87.72;99120.61;2218853;80;21280;-72
2021/04/18 03:08:24;;;;;;;59.60;27.32;;;;;;;6.08;87.66;99120.73;2218587;80;21138;-72
2021/04/18 03:11:26;;;;;;;60.58;26.70;;;;;;;6.05;87.59;99120.38;2190092;80;21269;-72
2021/04/18 03:14:28;;;;;;;57.65;26.80;;;;;;;6.03;87.68;99117.44;2218499;80;21566;-72
2021/04/18 03:17:31;;;;;;;58.28;26.30;;;;;;;6.05;87.82;99122.15;2218495;80;21610;-72
2021/04/18 03:20:33;;;;;;;61.08;28.23;;;;;;;6.04;87.70;99125.65;2218829;80;21303;-72
2021/04/18 03:23:34;;;;;;;72.05;32.42;;;;;;;6.17;87.76;99124.73;2218477;80;21142;-72
2021/04/18 03:26:36;;;;;;;69.05;30.65;;;;;;;6.17;87.53;99126.88;2218433;80;21606;-72
2021/04/18 03:29:39;;;;;;;65.52;29.75;;;;;;;6.16;87.41;99126.50;2218258;80;21322;-71
2021/04/18 03:32:41;;;;;;;61.95;26.02;;;;;;;6.15;87.46;99122.19;2218464;80;21178;-72
2021/04/18 03:35:43;;;;;;;79.92;34.80;;;;;;;6.18;87.41;99119.93;2189922;80;21257;-72
2021/04/18 03:38:45;;;;;;;82.42;35.88;;;;;;;6.21;87.34;99124.55;2218564;80;21554;-72
2021/04/18 03:41:47;;;;;;;74.03;32.45;;;;;;;6.22;87.17;99126.26;2218530;80;21151;-71
2021/04/18 03:44:49;;;;;;;54.10;25.45;;;;;;;6.16;87.12;99119.13;2218448;80;21166;-72
2021/04/18 03:47:51;;;;;;;46.02;22.07;;;;;;;6.19;87.31;99126.38;2218785;80;21312;-72
2021/04/18 03:50:53;;;;;;;47.85;23.35;;;;;;;6.21;87.13;99121.95;2218541;80;21158;-71
2021/04/18 03:53:55;;;;;;;49.48;24.23;;;;;;;6.11;86.88;99119.77;2218452;80;21617;-72
2021/04/18 03:56:57;;;;;;;64.00;28.65;;;;;;;5.97;87.02;99121.11;2218423;80;21122;-72
2021/04/18 03:59:59;;;;;;;73.17;32.05;;;;;;;5.96;87.34;99127.22;2219823;80;21300;-72
2021/04/18 04:03:01;;;;;;;73.42;32.75;;;;;;;5.97;87.42;99125.45;2222565;79;21305;-72
2021/04/18 04:06:03;;;;;;;71.25;31.57;;;;;;;6.03;87.50;99123.52;2222538;79;21743;-72
2021/04/18 04:09:05;;;;;;;68.47;31.68;;;;;;;5.99;87.34;99136.68;2222583;79;21133;-72
2021/04/18 04:12:07;;;;;;;63.87;28.73;;;;;;;6.03;87.56;99130.02;2222766;79;21736;-72
2021/04/18 04:15:09;;;;;;;;;;;;;;;6.07;87.36;99131.58;2225577;79;21692;-72
2021/04/18 04:18:11;;;;;;;47.83;21.90;;;;;;;6.07;87.15;99126.83;2222483;79;20143;-72
2021/04/18 04:21:13;;;;;;;55.20;25.08;;;;;;;6.06;87.43;99123.83;2222644;79;21304;-72
2021/04/18 04:24:16;;;;;;;52.75;24.12;;;;;;;6.15;87.49;99125.23;2222471;79;21312;-72
2021/04/18 04:27:19;;;;;;;54.63;25.32;;;;;;;6.23;87.10;99125.79;2222471;80;21126;-72
2021/04/18 04:30:21;;;;;;;51.33;24.05;;;;;;;6.20;86.98;99125.91;2222463;79;21604;-72
2021/04/18 04:33:23;;;;;;;107.32;57.03;;;;;;;6.20;87.01;99133.27;2222618;79;21725;-72
2021/04/18 04:36:25;;;;;;;54.45;26.37;;;;;;;6.23;86.82;99140.98;2196259;80;21562;-72
2021/04/18 04:39:27;;;;;;;48.92;22.87;;;;;;;6.19;86.80;99139.41;2222516;79;21781;-71
2021/04/18 04:42:29;;;;;;;42.88;21.10;;;;;;;6.13;86.78;99140.08;2196391;80;21134;-71
2021/04/18 04:45:31;;;;;;;49.45;23.87;;;;;;;6.06;86.96;99148.13;2222539;79;21800;-72
2021/04/18 04:48:33;;;;;;;46.15;21.50;;;;;;;6.07;86.96;99143.30;2222645;79;21305;-72
2021/04/18 04:51:35;;;;;;;44.80;20.15;;;;;;;6.05;86.99;99145.13;2222456;79;21119;-72
2021/04/18 04:54:37;;;;;;;43.35;20.43;;;;;;;6.05;87.12;99151.63;2222523;79;21570;-72
2021/04/18 04:57:40;;;;;;;45.38;20.80;;;;;;;6.07;87.19;99150.27;2222524;79;21708;-72
2021/04/18 05:00:42;;;;;;;47.83;22.32;;;;;;;6.10;87.20;99146.71;2220643;79;21127;-72
2021/04/18 05:03:44;;;;;;;55.63;24.43;;;;;;;6.19;87.31;99152.42;2189910;80;21736;-72
2021/04/18 05:06:46;;;;;;;46.55;22.42;;;;;;;6.32;87.14;99150.64;2218699;80;21292;-71
2021/04/18 05:09:48;;;;;;;47.98;21.62;;;;;;;6.34;87.13;99148.37;2218329;80;21127;-71
2021/04/18 05:12:50;;;;;;;46.65;21.07;;;;;;;6.36;86.87;99147.84;2218372;80;21145;-71
2021/04/18 05:15:52;;;;;;;47.08;21.52;;;;;;;6.35;86.76;99144.88;2218361;80;21158;-71
2021/04/18 05:18:54;;;;;;;46.13;21.65;;;;;;;6.41;87.17;99151.61;2189953;80;21733;-72
2021/04/18 05:21:56;;;;;;;43.90;20.65;;;;;;;6.47;86.99;99153.96;2218324;80;21674;-71
2021/04/18 05:24:58;;;;;;;41.77;20.02;;;;;;;6.42;86.77;99151.98;2218695;80;21146;-72
2021/04/18 05:28:00;;;;;;;44.42;20.52;;;;;;;6.41;86.72;99153.75;2218662;80;21301;-72
2021/04/18 05:31:02;;;;;;;47.58;22.10;;;;;;;6.42;86.71;99153.28;2218319;80;21305;-71
2021/04/18 05:34:04;;;;;;;46.00;21.10;;;;;;;6.48;87.02;99150.89;2218334;80;21289;-71
2021/04/18 05:37:06;;;;;;;48.68;22.77;;;;;;;6.55;87.18;99158.86;2218337;80;21260;-71
2021/04/18 05:40:08;;;;;;;48.23;22.17;;;;;;;6.69;87.39;99160.94;2218663;80;21296;-71
2021/04/18 05:43:11;;;;;;;49.13;22.98;;;;;;;6.84;86.85;99160.33;2218430;80;21626;-71
2021/04/18 05:46:13;;;;;;;54.08;22.95;;;;;;;6.89;86.85;99164.89;2218670;80;21273;-71
2021/04/18 05:49:15;;;;;;;55.38;25.25;;;;;;;7.01;86.24;99163.56;2218308;80;21297;-71
2021/04/18 05:52:17;;;;;;;51.75;25.08;;;;;;;7.13;86.60;99158.76;2218347;80;21261;-71
2021/04/18 05:55:19;;;;;;;50.23;23.42;;;;;;;7.28;86.56;99158.95;2218342;80;21283;-71
2021/04/18 05:58:21;;;;;;;49.95;23.40;;;;;;;7.58;86.55;99156.39;2218327;80;21293;-71
2021/04/18 06:01:23;;;;;;;45.78;19.73;;;;;;;7.84;85.88;99157.02;2189523;80;21146;-71
2021/04/18 06:04:26;;;;;;;47.13;20.45;;;;;;;8.06;84.64;99162.11;2218291;80;21764;-71
2021/04/18 06:07:27;;;;;;;42.15;18.65;;;;;;;8.37;84.57;99160.72;2218280;80;21308;-71
2021/04/18 06:10:30;;;;;;;42.23;18.65;;;;;;;8.69;83.87;99162.30;2218409;80;21174;-71
2021/04/18 06:13:32;;;;;;;37.83;17.12;;;;;;;8.91;83.01;99170.81;2218317;80;21283;-71
2021/04/18 06:16:34;;;;;;;37.80;16.82;;;;;;;9.15;81.57;99166.15;2189547;80;21118;-71
2021/04/18 06:19:36;;;;;;;33.13;14.65;;;;;;;9.61;80.96;99161.66;2218755;80;21273;-71
2021/04/18 06:22:38;;;;;;;38.50;18.23;;;;;;;9.85;79.90;99167.84;2218683;80;21142;-71
2021/04/18 06:25:40;;;;;;;37.00;17.35;;;;;;;9.98;79.20;99169.36;2218324;80;21261;-70
2021/04/18 06:28:42;;;;;;;37.23;17.40;;;;;;;10.20;78.98;99166.42;2218917;80;21653;-70
2021/04/18 06:31:44;;;;;;;37.25;18.37;;;;;;;10.56;79.23;99169.33;2218271;80;21250;-70
2021/04/18 06:34:47;;;;;;;33.63;14.98;;;;;;;10.98;78.50;99161.27;2218151;80;21575;-71
2021/04/18 06:37:49;;;;;;;31.23;14.60;;;;;;;11.04;77.14;99165.33;2218656;80;21158;-70
2021/04/18 06:40:50;;;;;;;28.98;12.50;;;;;;;10.85;76.41;99172.93;2218282;80;21342;-70
2021/04/18 06:43:52;;;;;;;27.32;11.05;;;;;;;10.98;76.39;99176.19;2218250;80;21273;-71
2021/04/18 06:46:54;;;;;;;28.52;12.18;;;;;;;10.86;73.75;99175.95;2218262;80;21301;-70
2021/04/18 06:49:57;;;;;;;27.52;12.07;;;;;;;10.78;73.43;99176.00;2218369;80;21688;-70
2021/04/18 06:52:59;;;;;;;25.92;10.28;;;;;;;10.62;75.12;99179.47;2218287;80;21293;-70
2021/04/18 06:56:01;;;;;;;27.05;11.48;;;;;;;10.38;72.97;99177.73;2218650;80;21288;-70
2021/04/18 06:59:04;;;;;;;26.20;10.50;;;;;;;10.17;73.97;99178.39;2218277;80;21288;-70
2021/04/18 07:02:06;;;;;;;24.10;9.30;;;;;;;9.94;70.80;99180.92;2186116;81;21272;-71
2021/04/18 07:05:08;;;;;;;27.65;12.82;;;;;;;9.77;72.63;99176.56;2193495;80;21102;-70
2021/04/18 07:08:10;;;;;;;;;;;;;;;9.70;74.09;99175.58;2195968;81;21162;-70
2021/04/18 07:11:13;;;;;;;24.30;9.28;;;;;;;9.63;73.66;99183.84;2193402;81;20394;-70
2021/04/18 07:14:15;;;;;;;25.57;10.08;;;;;;;9.61;74.71;99180.00;2193445;81;21154;-71
2021/04/18 07:17:17;;;;;;;27.00;10.58;;;;;;;9.77;75.74;99175.25;2193479;81;21136;-71
2021/04/18 07:20:19;;;;;;;23.38;8.78;;;;;;;10.09;75.17;99181.43;2193538;81;21257;-70
2021/04/18 07:23:20;;;;;;;25.15;10.18;;;;;;;10.40;73.67;99175.86;2193449;81;21606;-70
2021/04/18 07:26:23;;;;;;;23.07;9.15;;;;;;;10.61;71.00;99174.31;2193448;81;21150;-70
2021/04/18 07:29:25;;;;;;;22.17;9.00;;;;;;;10.42;70.83;99172.70;2193641;81;21300;-70
2021/04/18 07:32:28;;;;;;;22.17;8.53;;;;;;;10.23;71.05;99172.36;2193441;81;21630;-70
2021/04/18 07:35:30;;;;;;;23.45;9.30;;;;;;;10.42;72.42;99174.49;2193740;81;21302;-70
2021/04/18 07:38:32;;;;;;;25.77;9.25;;;;;;;10.48;72.47;99179.39;2193400;81;21143;-70
2021/04/18 07:41:34;;;;;;;24.40;9.75;;;;;;;10.47;72.36;99178.52;2193446;81;21098;-70
2021/04/18 07:44:36;;;;;;;25.55;9.80;;;;;;;10.52;72.73;99184.38;2193460;81;21157;-71
2021/04/18 07:47:38;;;;;;;26.20;10.95;;;;;;;10.54;72.08;99178.60;2178328;81;21280;-70
2021/04/18 07:50:40;;;;;;;24.85;10.58;;;;;;;10.39;72.23;99180.27;2193643;81;21261;-70
2021/04/18 07:53:42;;;;;;;27.75;11.20;;;;;;;10.35;72.42;99187.91;2193975;81;21284;-71
2021/04/18 07:56:44;;;;;;;;;;;;;;;10.29;72.73;99181.67;2196105;81;21265;-70
2021/04/18 07:59:46;;;;;;;27.75;11.85;;;;;;;10.17;72.93;99186.25;2193521;81;20243;-71
2021/04/18 08:02:48;;;;;;;29.57;12.80;;;;;;;10.01;72.17;99192.33;2217158;80;21597;-71
2021/04/18 08:05:51;;;;;;;30.72;13.58;;;;;;;9.86;71.62;99194.44;2221817;80;21769;-71
2021/04/18 08:08:52;;;;;;;30.25;13.20;;;;;;;9.73;72.73;99188.16;2221817;80;21280;-71
2021/04/18 08:11:54;;;;;;;31.48;13.08;;;;;;;9.86;73.47;99195.75;2221866;80;21252;-71
2021/04/18 08:14:56;;;;;;;29.95;12.80;;;;;;;10.08;72.24;99189.38;2221878;80;21704;-71
2021/04/18 08:17:58;;;;;;;27.95;12.58;;;;;;;10.37;72.51;99197.88;2221857;80;21129;-71
2021/04/18 08:21:00;;;;;;;29.67;13.45;;;;;;;10.58;71.84;99184.03;2221833;80;21293;-70
2021/04/18 08:24:02;;;;;;;28.42;12.73;;;;;;;10.84;70.77;99190.08;2193043;80;21313;-70
2021/04/18 08:27:05;;;;;;;27.85;12.23;;;;;;;10.96;71.14;99188.53;2221931;80;21320;-70
2021/04/18 08:30:07;;;;;;;28.17;12.53;;;;;;;11.04;70.63;99189.78;2196599;81;21703;-70
2021/04/18 08:33:09;;;;;;;27.37;11.22;;;;;;;11.21;71.04;99195.86;2196833;81;21166;-71
2021/04/18 08:36:11;;;;;;;26.60;11.63;;;;;;;11.29;69.39;99190.98;2196631;81;21280;-70
2021/04/18 08:39:14;;;;;;;29.07;12.88;;;;;;;11.27;69.79;99191.56;2196817;81;21585;-71
2021/04/18 08:42:16;;;;;;;32.90;15.32;;;;;;;11.33;69.80;99192.98;2242276;79;21292;-71
2021/04/18 08:45:18;;;;;;;31.90;14.18;;;;;;;11.32;70.08;99191.28;2221829;80;21701;-70
2021/04/18 08:48:20;;;;;;;28.45;13.35;;;;;;;11.37;69.84;99187.45;2221801;80;21289;-70
2021/04/18 08:51:22;;;;;;;30.40;13.85;;;;;;;11.42;68.92;99191.12;2196843;81;21130;-70
2021/04/18 08:54:25;;;;;;;28.42;13.05;;;;;;;11.43;67.90;99191.06;2196472;81;21299;-70
2021/04/18 08:57:28;;;;;;;31.10;14.30;;;;;;;11.49;68.48;99189.83;2197041;81;21193;-70
2021/04/18 09:00:30;;;;;;;31.93;13.68;;;;;;;11.48;67.64;99187.29;2196400;81;21185;-70
2021/04/18 09:03:32;;;;;;;30.25;13.00;;;;;;;11.41;68.14;99185.52;2192628;81;21281;-71
2021/04/18 09:06:35;;;;;;;32.20;14.35;;;;;;;11.36;68.10;99187.07;2178926;81;21170;-70
2021/04/18 09:09:37;;;;;;;29.32;14.05;;;;;;;11.25;67.94;99188.19;2178668;81;21281;-70
2021/04/18 09:12:40;;;;;;;30.57;14.15;;;;;;;11.08;68.21;99195.72;2173817;81;21807;-70
2021/04/18 09:15:42;;;;;;;31.37;14.07;;;;;;;10.81;68.04;99200.75;2178547;82;21323;-71
2021/04/18 09:18:44;;;;;;;31.68;14.63;;;;;;;10.73;68.52;99197.22;2178643;81;21595;-70
2021/04/18 09:21:46;;;;;;;30.52;14.10;;;;;;;10.95;69.03;99192.95;2178724;82;21287;-70
2021/04/18 09:24:48;;;;;;;30.23;14.33;;;;;;;11.29;68.86;99186.22;2178563;81;21309;-71
2021/04/18 09:27:51;;;;;;;29.50;13.45;;;;;;;11.61;67.38;99189.11;2202475;81;21307;-70
2021/04/18 09:30:53;;;;;;;29.67;13.55;;;;;;;11.73;67.24;99184.06;2178497;81;21725;-70
2021/04/18 09:33:55;;;;;;;33.45;14.50;;;;;;;11.81;67.07;99184.45;2178547;81;21280;-70
2021/04/18 09:36:57;;;;;;;29.30;12.98;;;;;;;11.84;64.29;99187.34;2178533;81;21280;-71
2021/04/18 09:40:00;;;;;;;29.98;13.90;;;;;;;11.87;65.41;99183.23;2202217;81;21145;-71
2021/04/18 09:43:05;;;;;;;30.02;13.70;;;;;;;11.85;65.87;99185.96;2178399;81;21308;-71
2021/04/18 09:46:06;;;;;;;29.67;12.90;;;;;;;11.99;66.66;99185.61;2178518;81;21273;-70
2021/04/18 09:49:08;;;;;;;27.87;12.58;;;;;;;12.15;65.69;99186.34;2178676;81;21325;-70
2021/04/18 09:52:10;;;;;;;29.18;12.68;;;;;;;12.27;65.27;99187.40;2202581;81;21304;-71
2021/04/18 09:55:12;;;;;;;25.97;11.80;;;;;;;12.34;65.03;99187.84;2178534;81;21704;-70
2021/04/18 09:58:14;;;;;;;28.57;12.65;;;;;;;12.36;62.84;99193.87;2202639;81;21283;-70
2021/04/18 10:01:16;;;;;;;28.02;12.35;;;;;;;12.34;64.17;99182.12;2178499;81;21292;-70
2021/04/18 10:04:18;;;;;;;29.12;13.50;;;;;;;12.34;63.28;99188.70;2178767;81;21292;-70
2021/04/18 10:07:20;;;;;;;27.90;11.83;;;;;;;12.53;61.70;99187.52;2178748;81;21324;-70
2021/04/18 10:10:23;;;;;;;25.95;11.22;;;;;;;12.64;62.60;99185.05;2178573;81;21721;-70
2021/04/18 10:13:25;;;;;;;29.52;12.60;;;;;;;12.73;61.07;99182.30;2178514;81;21720;-71
2021/04/18 10:16:27;;;;;;;29.55;11.85;;;;;;;12.57;62.67;99187.25;2178840;82;21292;-71
2021/04/18 10:19:29;;;;;;;28.47;12.78;;;;;;;12.74;62.96;99180.91;2178434;81;21316;-71
2021/04/18 10:22:31;;;;;;;26.27;10.98;;;;;;;12.93;62.77;99184.52;2178506;81;21280;-70
2021/04/18 10:25:33;;;;;;;24.23;10.13;;;;;;;13.02;61.93;99181.75;2202388;81;21145;-71
2021/04/18 10:28:35;;;;;;;25.92;11.30;;;;;;;12.97;62.16;99178.11;2178564;81;21725;-71
2021/04/18 10:31:38;;;;;;;25.62;10.78;;;;;;;12.91;60.55;99178.97;2178483;81;21621;-70
2021/04/18 10:34:41;;;;;;;25.40;10.78;;;;;;;12.91;61.57;99180.28;2178506;81;21285;-71
2021/04/18 10:37:43;;;;;;;27.67;12.00;;;;;;;13.00;61.87;99177.03;2202252;81;21177;-70
2021/04/18 10:40:45;;;;;;;24.77;10.85;;;;;;;13.20;61.30;99174.89;2178437;81;21812;-71
2021/04/18 10:43:47;;;;;;;26.55;11.05;;;;;;;13.23;60.20;99168.96;2178480;81;21741;-70
2021/04/18 10:46:49;;;;;;;26.02;10.80;;;;;;;13.17;61.16;99175.48;2178433;81;21745;-70
2021/04/18 10:49:51;;;;;;;25.68;11.05;;;;;;;13.26;60.94;99175.79;2202217;81;21157;-70
2021/04/18 10:52:53;;;;;;;25.35;10.08;;;;;;;13.49;61.59;99172.50;2178465;81;21732;-70
2021/04/18 10:55:55;;;;;;;25.10;10.90;;;;;;;13.73;60.93;99173.58;2178574;81;21732;-70
2021/04/18 10:58:57;;;;;;;25.00;10.50;;;;;;;13.86;60.48;99177.91;2178452;81;21122;-71
2021/04/18 11:01:59;;;;;;;23.85;9.98;;;;;;;14.02;59.86;99172.41;2178461;81;21174;-70
2021/04/18 11:05:01;;;;;;;25.62;10.98;;;;;;;14.45;60.08;99172.50;2221221;79;21311;-70
2021/04/18 11:08:03;;;;;;;23.55;9.78;;;;;;;14.96;59.57;99169.33;2237641;80;21122;-70
2021/04/18 11:11:05;;;;;;;23.70;10.10;;;;;;;15.32;58.37;99172.83;2237753;79;21311;-70
2021/04/18 11:14:07;;;;;;;25.05;10.13;;;;;;;15.38;56.60;99166.58;2237737;80;21759;-71
2021/04/18 11:17:09;;;;;;;22.48;8.63;;;;;;;15.44;55.94;99167.92;2237658;80;21751;-70
2021/04/18 11:20:11;;;;;;;21.15;8.28;;;;;;;15.17;54.41;99167.73;2237749;79;21287;-70
2021/04/18 11:23:13;;;;;;;;;;;;;;;14.86;54.97;99166.02;2240574;79;21264;-70
2021/04/18 11:26:15;;;;;;;21.10;8.47;;;;;;;14.62;56.12;99165.18;2238049;80;20222;-70
2021/04/18 11:29:17;;;;;;;21.73;8.03;;;;;;;14.31;55.39;99163.37;2237925;79;21704;-70
2021/04/18 11:32:20;;;;;;;22.07;7.62;;;;;;;13.96;56.56;99168.86;2237890;79;21723;-70
2021/04/18 11:35:22;;;;;;;20.00;7.40;;;;;;;13.01;52.96;99170.83;2237891;79;21708;-71
2021/04/18 11:38:24;;;;;;;21.97;7.37;;;;;;;13.01;52.96;99170.83;2237873;79;21284;-71
2021/04/18 11:41:26;;;;;;;24.75;10.28;;;;;;;12.70;56.75;99164.95;2237789;79;21287;-71
2021/04/18 11:44:27;;;;;;;24.10;10.18;;;;;;;12.89;58.25;99171.66;2237915;80;21282;-71
2021/04/18 11:47:29;;;;;;;26.45;9.60;;;;;;;13.10;58.31;99168.06;2237767;80;21304;-71
2021/04/18 11:50:31;;;;;;;22.62;9.03;;;;;;;13.23;57.96;99166.33;2238154;79;21146;-71
2021/04/18 11:53:33;;;;;;;24.27;9.98;;;;;;;13.37;57.54;99164.58;2237950;79;21288;-70
2021/04/18 11:56:36;;;;;;;22.87;8.13;;;;;;;13.48;57.82;99166.02;2238339;79;21157;-71
2021/04/18 11:59:38;;;;;;;24.10;8.75;;;;;;;13.46;55.56;99173.17;2238180;79;21272;-71
2021/04/18 12:02:40;;;;;;;24.72;9.53;;;;;;;13.25;52.27;99165.73;2237838;79;21280;-71
2021/04/18 12:05:42;;;;;;;22.37;8.68;;;;;;;12.98;54.80;99170.55;2224745;79;21316;-71
2021/04/18 12:08:43;;;;;;;21.52;8.05;;;;;;;12.85;56.27;99168.36;2162712;82;21145;-71
2021/04/18 12:11:45;;;;;;;22.62;7.83;;;;;;;12.98;57.24;99169.23;2219213;80;21720;-71
2021/04/18 12:14:47;;;;;;;20.62;7.80;;;;;;;13.21;56.96;99162.94;2219114;80;21300;-71
2021/04/18 12:17:49;;;;;;;21.55;7.78;;;;;;;13.45;54.61;99160.48;2219107;80;21149;-71
2021/04/18 12:20:51;;;;;;;23.27;8.15;;;;;;;13.47;53.88;99161.20;2219185;80;21110;-71
2021/04/18 12:23:55;;;;;;;18.75;6.65;;;;;;;13.73;55.65;99156.44;2219097;80;21704;-70
2021/04/18 12:26:57;;;;;;;19.45;6.92;;;;;;;14.22;55.78;99151.68;2218957;80;21320;-71
2021/04/18 12:29:59;;;;;;;19.60;7.20;;;;;;;14.51;54.56;99148.30;2219192;80;21724;-71
2021/04/18 12:33:01;;;;;;;;;;;;;;;14.76;52.69;99148.34;2221618;80;21741;-71
2021/04/18 12:36:04;;;;;;;22.00;8.60;;;;;;;14.96;53.78;99150.84;2219187;80;20250;-71
2021/04/18 12:39:06;;;;;;;19.82;7.08;;;;;;;15.05;53.94;99150.97;2218935;80;21708;-70
2021/04/18 12:42:08;;;;;;;21.65;8.58;;;;;;;15.11;53.63;99147.52;2219109;80;21280;-71
2021/04/18 12:45:11;;;;;;;;;;;;;;;15.18;53.69;99143.47;2221607;80;21741;-71
2021/04/18 12:48:13;;;;;;;22.90;9.40;;;;;;;15.15;53.38;99140.56;2219558;80;20143;-71
2021/04/18 12:51:15;;;;;;;20.60;7.70;;;;;;;14.98;52.97;99140.98;2219110;80;21130;-71
2021/04/18 12:54:17;;;;;;;20.80;7.97;;;;;;;14.89;53.75;99137.23;2219108;80;21276;-71
2021/04/18 12:57:21;;;;;;;20.12;7.33;;;;;;;14.59;53.25;99138.48;2218976;80;21752;-71
2021/04/18 13:00:24;;;;;;;20.08;6.87;;;;;;;14.48;52.96;99136.64;2218924;80;21273;-70
2021/04/18 13:03:26;;;;;;;19.92;7.28;;;;;;;14.46;52.56;99134.58;2219051;80;21288;-70
2021/04/18 13:06:28;;;;;;;20.00;7.10;;;;;;;14.61;54.23;99131.31;2219268;80;21153;-71
2021/04/18 13:09:31;;;;;;;25.15;9.00;;;;;;;15.02;52.07;99124.79;2218759;80;21134;-71
2021/04/18 13:12:33;;;;;;;;;;;;;;;15.05;50.63;99125.05;2221836;80;21291;-71
2021/04/18 13:15:35;;;;;;;20.68;7.62;;;;;;;15.36;50.97;99121.43;2219220;80;20223;-71
2021/04/18 13:18:37;;;;;;;20.00;7.12;;;;;;;16.09;48.05;99121.50;2219157;80;21708;-71
2021/04/18 13:21:40;;;;;;;20.15;7.15;;;;;;;16.32;51.43;99116.19;2192409;80;21277;-71
2021/04/18 13:24:42;;;;;;;27.90;11.45;;;;;;;16.72;50.56;99113.42;2219169;80;21308;-71
2021/04/18 13:27:44;;;;;;;23.60;8.65;;;;;;;16.71;46.36;99111.76;2219014;80;21153;-71
2021/04/18 13:30:46;;;;;;;23.32;8.88;;;;;;;15.87;47.61;99110.43;2218957;80;21323;-71
2021/04/18 13:33:48;;;;;;;19.12;6.62;;;;;;;14.93;47.55;99107.46;2219038;80;21280;-71
2021/04/18 13:36:50;;;;;;;24.32;8.65;;;;;;;14.52;48.53;99112.17;2219073;80;21724;-71
2021/04/18 13:39:52;;;;;;;26.37;8.90;;;;;;;14.42;49.96;99117.27;2218985;80;21285;-71
2021/04/18 13:42:54;;;;;;;;;;;;;;;14.24;50.47;99115.95;2221527;80;21562;-71
2021/04/18 13:45:56;;;;;;;21.68;7.75;;;;;;;14.45;50.73;99118.85;2219145;80;20119;-71
2021/04/18 13:48:58;;;;;;;23.42;9.55;;;;;;;14.26;49.39;99117.54;2218995;80;21308;-71
2021/04/18 13:52:00;;;;;;;25.68;9.90;;;;;;;14.24;51.30;99116.81;2192531;80;21272;-71
2021/04/18 13:55:03;;;;;;;22.62;7.17;;;;;;;14.31;51.28;99118.52;2219035;80;21289;-71
2021/04/18 13:58:06;;;;;;;24.18;9.25;;;;;;;14.11;51.63;99116.84;2218853;80;21288;-71
2021/04/18 14:01:08;;;;;;;20.30;6.92;;;;;;;13.82;50.32;99109.20;2219004;80;21157;-71
2021/04/18 14:04:10;;;;;;;21.68;7.40;;;;;;;13.45;50.61;99105.63;2219324;80;21284;-72
2021/04/18 14:07:12;;;;;;;19.27;6.50;;;;;;;13.29;52.21;99115.86;2218545;80;21161;-71